Aérodrome :
LOGIN :

S'inscrire | Disclaimer

   EN    FR    IT 

 










Légende :    VFR   VFR Marginal   IFR   IFR Intensif   IFR Très Intensif
Visi : 
Plafond : 
>= 8 km
>= 3000ft
5 à 8 km
1000 à 3000 ft
1500m à 5 km
500 à 1000 ft
800 à 1500m
200 à 500 ft
< 800m
< 200 ft
Symboles :   Orages  Brouillard  Fortes neiges  Fortes précipitations  Vent > 20 kt
SIGMETs :   Divers  Orages  Givrage  Turbulence  Onde Orograph.  Cendres Volcan.







- Altitude de l'aérodrome : 458 ft
- Voir les cartes d'approche


LFSI - St-Dizier

DERNIER METAR :
  • 211700Z AUTO 35007KT 300V020 CAVOK 28/15 Q1018

METARs EXPIRÉS :
  • 211630Z AUTO 35009KT 300V010 CAVOK 28/15 Q1018
  • 211600Z AUTO 35006KT 300V030 CAVOK 29/15 Q1018
  • 211530Z AUTO 33009KT 290V030 CAVOK 29/15 Q1018
  • 211500Z AUTO 33008KT 280V020 CAVOK 29/15 Q1018
  • 211430Z AUTO 34007KT 220V030 CAVOK 29/15 Q1018

TAF TAF LFSI
Valide du 21 à 03h jusqu'au 22 à 03h UTC


210200Z 2103/2203 VRB02KT CAVOK
PROB30
TEMPO 2103/2106 4000 BR
Pas de NOTAMs connus pour ce terrain.



MET'MAP, la Météo Aéronautique d'un coup d'oeil ! - Copyright ORBIFLY Décembre 2007 - Disclaimer

ORBIFLY MET'MAP TEAM :

Programmation & Développement : Alexandra Zaïnal
Conception & Développement : Baudouin d'Aumeries
Co-Programmation & Développement : Marc-Olivier Méhu
Soutien technique & logistique : Manuel Goepfert

Contact : metmap@orbifly.com




SOURCES & CREDITS :

   NOAA